Results: 2022 Americas Triathlon Cup Salinas | Elite Women
Salinas, Ecuador • 24 Apr, 2022
Pos First Name Last Name YOB Country Start
Num
Time Swim
750m
T1 Bike
21.6km
T2 Run
5km
1 Djenyfer Arnold 1993 BRA 7 01:02:39 00:09:41 00:01:08 00:33:47 00:00:24 00:17:42
2 Tamara Gorman 1996 USA 2 01:03:11 00:09:45 00:01:08 00:34:28 00:00:27 00:17:27
3 Yuka Sato 1992 JPN 6 01:03:26 00:09:41 00:01:13 00:34:27 00:00:24 00:17:44
4 Maria Tomé 2001 POR 5 01:03:55 00:10:03 00:01:11 00:34:42 00:00:23 00:17:39
5 Annie Kelly 1994 USA 23 01:03:56 00:10:08 00:01:11 00:34:39 00:00:25 00:17:36
6 Miyu Sakai 1999 JPN 1 01:04:00 00:09:56 00:01:08 00:34:53 00:00:23 00:17:44
7 Diana Castillo 1993 COL 11 01:04:10 00:09:46 00:01:08 00:35:04 00:00:26 00:17:48
8 Chisato Nakajima 2003 JPN 4 01:04:14 00:10:03 00:01:10 00:34:43 00:00:21 00:18:00
9 Paula Jara 1997 ECU 9 01:04:28 00:10:09 00:01:11 00:34:39 00:00:25 00:18:07
10 Amber Schlebusch 2001 RSA 24 01:04:39 00:10:06 00:01:11 00:34:43 00:00:25 00:18:16
11 Vanesa De La Torre 1995 MEX 17 01:05:01 00:09:58 00:01:08 00:34:53 00:00:23 00:18:42
12 Madisen Lavin 2000 USA 21 01:05:11 00:09:56 00:01:11 00:34:52 00:00:23 00:18:52
13 Juri Ide 1983 JPN 3 01:05:38 00:10:06 00:01:12 00:34:38 00:00:23 00:19:22
14 Raquel Solis Guerrero 1998 CRC 8 01:05:53 00:09:57 00:01:10 00:34:53 00:00:28 00:19:28
15 Liberty Ricca 2001 USA 12 01:05:58 00:09:59 00:01:09 00:34:52 00:00:31 00:19:30
16 Camille Buchanan 2002 USA 32 01:06:11 00:10:04 00:01:15 00:34:42 00:00:27 00:19:46
17 Gabrielle Lemes 2002 BRA 16 01:06:14 00:10:20 00:01:14 00:36:44 00:00:25 00:17:34
18 Alexandrine Coursol 2001 CAN 10 01:06:27 00:10:01 00:01:17 00:34:39 00:00:26 00:20:06
19 Faith Dasso 2004 USA 18 01:06:33 00:10:26 00:01:09 00:34:21 00:00:23 00:20:17
20 Josseline Michelle Yuqui Peralta 2002 ECU 20 01:07:02 00:10:29 00:01:11 00:36:41 00:00:28 00:18:17
21 Clara Normand 2003 CAN 19 01:07:12 00:10:28 00:01:08 00:34:24 00:00:27 00:20:49
22 María Alejandra Coral Mejia 2003 COL 31 01:07:20 00:10:33 00:01:11 00:36:34 00:00:24 00:18:41
23 Julia Kekkonen 2000 FIN 26 01:08:13 00:11:18 00:01:09 00:35:53 00:00:31 00:19:25
24 Evan Elizabeth Welch 2002 USA 36 01:08:38 00:10:38 00:01:14 00:36:28 00:00:23 00:19:58
25 Zoe Adam 2005 PUR 27 01:09:24 00:10:20 00:01:14 00:36:44 00:00:26 00:20:43
26 Shelby Lajeunesse 2005 CAN 41 01:10:07 00:10:26 00:01:19 00:36:32 00:00:23 00:21:29
27 Paula Vega 2002 ECU 14 01:11:24 00:09:59 00:01:06 00:39:39 00:00:26 00:20:16
28 Antonia Quinteros 2004 CHI 35 01:11:44 00:11:17 00:01:14 00:38:13 00:00:24 00:20:39
29 Fernanda Orellana 2004 CHI 39 01:12:45 00:11:40 00:01:21 00:37:42 00:00:30 00:21:36
30 Céline Marks 1996 CAN 25 01:12:51 00:10:28 00:01:15 00:39:06 00:00:30 00:21:36
31 Rachel Faulds 1995 CAN 29 01:13:56 00:10:26 00:01:22 00:39:57 00:00:42 00:21:33
32 Renata Valentina Pesantez Aviles 2006 ECU 30 01:21:45 00:11:35 00:01:18 00:42:28 00:00:31 00:25:56
DNF Diana Sofia Yoscua Martinez 2005 COL 40 00:10:15 00:01:25 00:40:31 00:00:33 00:00:00
DNF Kira Gupta-Baltazar 2002 CAN 15 00:09:45 00:01:10 00:00:00 00:00:00 00:00:00
DNF Kira Stanley 2000 USA 28 00:10:03 00:00:00 00:00:00 00:00:00 00:00:00
Program notes:

Technical Delegate: Jose Fernando Espinosa/COL. Head Referee: Jimmy Lincoln/ECU. Competition Jury: Jose Fernando Espinosa/COL, Kelly Mora/ECU, Cristian Batson/ECU.
Distances: Swim 750 m. (1 lap), bike 21.6 km (4 laps), run 5 km (3 laps)
Water temperature 28ºC, air temperature 31ºC. Wetsuits not allowed.